sensor_id;sensor_type;location;lat;lon;timestamp;pressure;altitude;pressure_sealevel;temperature;humidity
64853;BME280;56050;55.558;-4.644;2023-09-08T00:00:10;101704.84;;;22.35;63.62
64853;BME280;56050;55.558;-4.644;2023-09-08T00:02:35;101707.38;;;22.29;63.77
64853;BME280;56050;55.558;-4.644;2023-09-08T00:05:00;101709.50;;;22.25;63.87
64853;BME280;56050;55.558;-4.644;2023-09-08T00:07:26;101707.63;;;22.22;63.87
64853;BME280;56050;55.558;-4.644;2023-09-08T00:09:51;101710.06;;;22.20;63.87
64853;BME280;56050;55.558;-4.644;2023-09-08T00:12:17;101706.97;;;22.18;63.78
64853;BME280;56050;55.558;-4.644;2023-09-08T00:14:42;101706.75;;;22.12;63.89
64853;BME280;56050;55.558;-4.644;2023-09-08T00:17:08;101706.13;;;22.08;63.95
64853;BME280;56050;55.558;-4.644;2023-09-08T00:19:33;101701.94;;;22.04;64.01
64853;BME280;56050;55.558;-4.644;2023-09-08T00:21:59;101704.13;;;21.96;64.19
64853;BME280;56050;55.558;-4.644;2023-09-08T00:24:24;101709.50;;;21.87;64.23
64853;BME280;56050;55.558;-4.644;2023-09-08T00:26:50;101707.97;;;21.86;64.16
64853;BME280;56050;55.558;-4.644;2023-09-08T00:29:15;101708.78;;;21.87;64.35
64853;BME280;56050;55.558;-4.644;2023-09-08T00:31:41;101708.38;;;21.85;64.19
64853;BME280;56050;55.558;-4.644;2023-09-08T00:34:07;101703.47;;;21.80;64.40
64853;BME280;56050;55.558;-4.644;2023-09-08T00:36:32;101705.09;;;21.77;64.31
64853;BME280;56050;55.558;-4.644;2023-09-08T00:38:58;101711.81;;;21.76;64.59
64853;BME280;56050;55.558;-4.644;2023-09-08T00:41:23;101691.41;;;21.77;64.62
64853;BME280;56050;55.558;-4.644;2023-09-08T00:43:49;101699.53;;;21.81;64.32
64853;BME280;56050;55.558;-4.644;2023-09-08T00:46:16;101700.63;;;21.83;64.36
64853;BME280;56050;55.558;-4.644;2023-09-08T00:48:42;101697.41;;;21.85;64.50
64853;BME280;56050;55.558;-4.644;2023-09-08T00:51:08;101706.41;;;21.85;64.33
64853;BME280;56050;55.558;-4.644;2023-09-08T00:53:35;101705.78;;;21.81;64.48
64853;BME280;56050;55.558;-4.644;2023-09-08T00:56:02;101705.09;;;21.77;64.48
64853;BME280;56050;55.558;-4.644;2023-09-08T00:58:28;101713.03;;;21.75;64.50
64853;BME280;56050;55.558;-4.644;2023-09-08T01:00:54;101714.22;;;21.74;64.54
64853;BME280;56050;55.558;-4.644;2023-09-08T01:03:20;101713.34;;;21.77;64.51
64853;BME280;56050;55.558;-4.644;2023-09-08T01:05:46;101717.19;;;21.80;64.67
64853;BME280;56050;55.558;-4.644;2023-09-08T01:08:12;101715.88;;;21.84;64.36
64853;BME280;56050;55.558;-4.644;2023-09-08T01:10:40;101711.13;;;21.85;64.40
64853;BME280;56050;55.558;-4.644;2023-09-08T01:13:07;101704.03;;;21.87;64.27
64853;BME280;56050;55.558;-4.644;2023-09-08T01:15:32;101709.09;;;21.89;64.34
64853;BME280;56050;55.558;-4.644;2023-09-08T01:17:58;101711.06;;;21.88;64.41
64853;BME280;56050;55.558;-4.644;2023-09-08T01:20:47;101697.41;;;21.85;64.43
64853;BME280;56050;55.558;-4.644;2023-09-08T01:23:35;101696.31;;;21.82;64.36
64853;BME280;56050;55.558;-4.644;2023-09-08T01:26:10;101697.66;;;21.78;64.26
64853;BME280;56050;55.558;-4.644;2023-09-08T01:28:39;101697.09;;;21.70;64.34
64853;BME280;56050;55.558;-4.644;2023-09-08T01:31:06;101697.31;;;21.63;64.59
64853;BME280;56050;55.558;-4.644;2023-09-08T01:33:32;101699.06;;;21.57;64.65
64853;BME280;56050;55.558;-4.644;2023-09-08T01:35:58;101697.31;;;21.50;64.81
64853;BME280;56050;55.558;-4.644;2023-09-08T01:38:24;101696.66;;;21.46;64.76
64853;BME280;56050;55.558;-4.644;2023-09-08T01:40:50;101697.97;;;21.42;64.87
64853;BME280;56050;55.558;-4.644;2023-09-08T01:43:15;101696.09;;;21.39;64.86
64853;BME280;56050;55.558;-4.644;2023-09-08T01:45:41;101698.84;;;21.39;65.17
64853;BME280;56050;55.558;-4.644;2023-09-08T01:48:06;101699.28;;;21.37;64.88
64853;BME280;56050;55.558;-4.644;2023-09-08T01:50:31;101696.97;;;21.36;64.98
64853;BME280;56050;55.558;-4.644;2023-09-08T01:52:57;101693.56;;;21.32;65.29
64853;BME280;56050;55.558;-4.644;2023-09-08T01:55:22;101686.31;;;21.25;65.15
64853;BME280;56050;55.558;-4.644;2023-09-08T01:57:48;101685.22;;;21.23;65.17
64853;BME280;56050;55.558;-4.644;2023-09-08T02:00:13;101688.03;;;21.19;65.37
64853;BME280;56050;55.558;-4.644;2023-09-08T02:02:39;101694.84;;;21.15;65.51
64853;BME280;56050;55.558;-4.644;2023-09-08T02:05:06;101698.44;;;21.12;65.50
64853;BME280;56050;55.558;-4.644;2023-09-08T02:07:31;101691.09;;;21.08;65.53
64853;BME280;56050;55.558;-4.644;2023-09-08T02:09:58;101697.03;;;21.07;65.43
64853;BME280;56050;55.558;-4.644;2023-09-08T02:12:23;101688.53;;;21.01;65.77
64853;BME280;56050;55.558;-4.644;2023-09-08T02:14:49;101683.94;;;20.98;65.84
64853;BME280;56050;55.558;-4.644;2023-09-08T02:17:14;101691.38;;;20.98;65.76
64853;BME280;56050;55.558;-4.644;2023-09-08T02:19:40;101681.59;;;20.97;65.78
64853;BME280;56050;55.558;-4.644;2023-09-08T02:22:05;101686.31;;;20.96;66.00
64853;BME280;56050;55.558;-4.644;2023-09-08T02:24:31;101687.94;;;20.94;65.84
64853;BME280;56050;55.558;-4.644;2023-09-08T02:26:56;101677.09;;;20.90;65.71
64853;BME280;56050;55.558;-4.644;2023-09-08T02:29:22;101683.78;;;20.89;66.02
64853;BME280;56050;55.558;-4.644;2023-09-08T02:31:48;101680.25;;;20.89;65.87
64853;BME280;56050;55.558;-4.644;2023-09-08T02:34:13;101685.41;;;20.87;66.13
64853;BME280;56050;55.558;-4.644;2023-09-08T02:36:39;101685.09;;;20.85;65.76
64853;BME280;56050;55.558;-4.644;2023-09-08T02:39:05;101689.03;;;20.84;66.09
64853;BME280;56050;55.558;-4.644;2023-09-08T02:41:30;101686.28;;;20.84;65.93
64853;BME280;56050;55.558;-4.644;2023-09-08T02:43:56;101685.50;;;20.83;65.98
64853;BME280;56050;55.558;-4.644;2023-09-08T02:46:21;101675.75;;;20.82;66.19
64853;BME280;56050;55.558;-4.644;2023-09-08T02:48:47;101674.63;;;20.80;66.19
64853;BME280;56050;55.558;-4.644;2023-09-08T02:51:12;101676.63;;;20.79;66.38
64853;BME280;56050;55.558;-4.644;2023-09-08T02:53:38;101665.31;;;20.77;66.30
64853;BME280;56050;55.558;-4.644;2023-09-08T02:56:03;101664.22;;;20.75;66.24
64853;BME280;56050;55.558;-4.644;2023-09-08T02:58:31;101663.13;;;20.72;66.32
64853;BME280;56050;55.558;-4.644;2023-09-08T03:01:09;101658.19;;;20.67;66.46
64853;BME280;56050;55.558;-4.644;2023-09-08T03:03:36;101658.19;;;20.67;66.53
64853;BME280;56050;55.558;-4.644;2023-09-08T03:06:02;101662.09;;;20.66;66.50
64853;BME280;56050;55.558;-4.644;2023-09-08T03:08:28;101659.03;;;20.64;66.69
64853;BME280;56050;55.558;-4.644;2023-09-08T03:10:58;101652.00;;;20.63;66.73
64853;BME280;56050;55.558;-4.644;2023-09-08T03:13:24;101655.09;;;20.65;66.68
64853;BME280;56050;55.558;-4.644;2023-09-08T03:15:51;101647.66;;;20.66;66.64
64853;BME280;56050;55.558;-4.644;2023-09-08T03:18:17;101648.41;;;20.66;66.67
64853;BME280;56050;55.558;-4.644;2023-09-08T03:20:42;101653.47;;;20.68;66.38
64853;BME280;56050;55.558;-4.644;2023-09-08T03:23:08;101654.34;;;20.65;66.55
64853;BME280;56050;55.558;-4.644;2023-09-08T03:25:34;101651.16;;;20.66;66.56
64853;BME280;56050;55.558;-4.644;2023-09-08T03:27:59;101654.66;;;20.67;66.45
64853;BME280;56050;55.558;-4.644;2023-09-08T03:30:25;101654.25;;;20.68;66.39
64853;BME280;56050;55.558;-4.644;2023-09-08T03:32:50;101661.25;;;20.69;66.53
64853;BME280;56050;55.558;-4.644;2023-09-08T03:35:16;101653.03;;;20.69;66.46
64853;BME280;56050;55.558;-4.644;2023-09-08T03:37:41;101656.53;;;20.70;66.36
64853;BME280;56050;55.558;-4.644;2023-09-08T03:40:07;101644.03;;;20.69;66.37
64853;BME280;56050;55.558;-4.644;2023-09-08T03:42:32;101649.97;;;20.67;66.41
64853;BME280;56050;55.558;-4.644;2023-09-08T03:45:00;101656.22;;;20.68;66.70
64853;BME280;56050;55.558;-4.644;2023-09-08T03:47:25;101653.47;;;20.68;66.48
64853;BME280;56050;55.558;-4.644;2023-09-08T03:49:50;101647.22;;;20.67;66.47
64853;BME280;56050;55.558;-4.644;2023-09-08T03:52:16;101645.25;;;20.68;66.48
64853;BME280;56050;55.558;-4.644;2023-09-08T03:54:41;101644.81;;;20.69;66.55
64853;BME280;56050;55.558;-4.644;2023-09-08T03:57:07;101643.16;;;20.72;66.67
64853;BME280;56050;55.558;-4.644;2023-09-08T03:59:32;101638.06;;;20.74;66.55
64853;BME280;56050;55.558;-4.644;2023-09-08T04:01:57;101645.81;;;20.75;66.47
64853;BME280;56050;55.558;-4.644;2023-09-08T04:04:23;101655.22;;;20.74;66.42
64853;BME280;56050;55.558;-4.644;2023-09-08T04:06:48;101653.34;;;20.71;66.73
64853;BME280;56050;55.558;-4.644;2023-09-08T04:09:14;101658.94;;;20.68;66.65
64853;BME280;56050;55.558;-4.644;2023-09-08T04:11:39;101656.84;;;20.59;66.76
64853;BME280;56050;55.558;-4.644;2023-09-08T04:14:05;101655.41;;;20.55;66.79
64853;BME280;56050;55.558;-4.644;2023-09-08T04:16:30;101669.94;;;20.52;66.86
64853;BME280;56050;55.558;-4.644;2023-09-08T04:18:55;101664.03;;;20.53;66.90
64853;BME280;56050;55.558;-4.644;2023-09-08T04:21:21;101654.72;;;20.50;66.76
64853;BME280;56050;55.558;-4.644;2023-09-08T04:23:47;101659.41;;;20.50;66.93
64853;BME280;56050;55.558;-4.644;2023-09-08T04:26:12;101657.53;;;20.47;66.79
64853;BME280;56050;55.558;-4.644;2023-09-08T04:28:39;101651.41;;;20.43;67.01
64853;BME280;56050;55.558;-4.644;2023-09-08T04:31:05;101654.56;;;20.41;67.01
64853;BME280;56050;55.558;-4.644;2023-09-08T04:33:30;101666.72;;;20.40;66.94
64853;BME280;56050;55.558;-4.644;2023-09-08T04:35:56;101657.41;;;20.38;66.98
64853;BME280;56050;55.558;-4.644;2023-09-08T04:38:21;101664.47;;;20.35;67.13
64853;BME280;56050;55.558;-4.644;2023-09-08T04:40:47;101666.56;;;20.31;66.87
64853;BME280;56050;55.558;-4.644;2023-09-08T04:43:12;101661.59;;;20.26;67.01
64853;BME280;56050;55.558;-4.644;2023-09-08T04:45:38;101660.06;;;20.25;67.13
64853;BME280;56050;55.558;-4.644;2023-09-08T04:48:04;101663.13;;;20.27;67.20
64853;BME280;56050;55.558;-4.644;2023-09-08T04:50:30;101669.69;;;20.30;66.89
64853;BME280;56050;55.558;-4.644;2023-09-08T04:52:55;101664.22;;;20.30;67.21
64853;BME280;56050;55.558;-4.644;2023-09-08T04:55:21;101658.00;;;20.29;66.84
64853;BME280;56050;55.558;-4.644;2023-09-08T04:57:46;101662.72;;;20.29;67.10
64853;BME280;56050;55.558;-4.644;2023-09-08T05:00:14;101669.38;;;20.28;67.11
64853;BME280;56050;55.558;-4.644;2023-09-08T05:02:40;101681.16;;;20.25;67.16
64853;BME280;56050;55.558;-4.644;2023-09-08T05:05:06;101684.00;;;20.21;67.30
64853;BME280;56050;55.558;-4.644;2023-09-08T05:07:31;101685.16;;;20.20;67.27
64853;BME280;56050;55.558;-4.644;2023-09-08T05:09:57;101688.31;;;20.19;67.29
64853;BME280;56050;55.558;-4.644;2023-09-08T05:12:22;101686.72;;;20.21;67.22
64853;BME280;56050;55.558;-4.644;2023-09-08T05:14:47;101681.25;;;20.21;67.13
64853;BME280;56050;55.558;-4.644;2023-09-08T05:17:13;101690.31;;;20.18;67.09
64853;BME280;56050;55.558;-4.644;2023-09-08T05:19:40;101689.28;;;20.12;67.15
64853;BME280;56050;55.558;-4.644;2023-09-08T05:22:06;101694.06;;;20.08;67.11
64853;BME280;56050;55.558;-4.644;2023-09-08T05:24:34;101698.09;;;20.04;67.09
64853;BME280;56050;55.558;-4.644;2023-09-08T05:26:59;101688.00;;;20.01;67.03
64853;BME280;56050;55.558;-4.644;2023-09-08T05:29:25;101685.34;;;19.97;67.28
64853;BME280;56050;55.558;-4.644;2023-09-08T05:31:50;101691.31;;;19.92;67.17
64853;BME280;56050;55.558;-4.644;2023-09-08T05:34:16;101688.75;;;19.85;67.39
64853;BME280;56050;55.558;-4.644;2023-09-08T05:36:42;101693.13;;;19.82;67.26
64853;BME280;56050;55.558;-4.644;2023-09-08T05:39:08;101702.84;;;19.83;67.55
64853;BME280;56050;55.558;-4.644;2023-09-08T05:41:33;101693.78;;;19.86;67.44
64853;BME280;56050;55.558;-4.644;2023-09-08T05:44:00;101691.06;;;19.86;67.30
64853;BME280;56050;55.558;-4.644;2023-09-08T05:46:25;101695.00;;;19.85;67.25
64853;BME280;56050;55.558;-4.644;2023-09-08T05:48:51;101697.03;;;19.81;67.37
64853;BME280;56050;55.558;-4.644;2023-09-08T05:51:16;101694.38;;;19.78;67.34
64853;BME280;56050;55.558;-4.644;2023-09-08T05:53:41;101704.22;;;19.75;67.59
64853;BME280;56050;55.558;-4.644;2023-09-08T05:56:07;101706.59;;;19.73;67.45
64853;BME280;56050;55.558;-4.644;2023-09-08T05:58:33;101701.22;;;19.70;67.43
64853;BME280;56050;55.558;-4.644;2023-09-08T06:01:03;101699.69;;;19.69;67.42
64853;BME280;56050;55.558;-4.644;2023-09-08T06:03:28;101698.06;;;19.71;67.70
64853;BME280;56050;55.558;-4.644;2023-09-08T06:05:54;101695.66;;;19.73;67.62
64853;BME280;56050;55.558;-4.644;2023-09-08T06:08:19;101709.69;;;19.75;67.59
64853;BME280;56050;55.558;-4.644;2023-09-08T06:10:45;101710.88;;;19.74;67.60
64853;BME280;56050;55.558;-4.644;2023-09-08T06:13:10;101714.03;;;19.73;67.45
64853;BME280;56050;55.558;-4.644;2023-09-08T06:15:36;101709.75;;;19.72;67.64
64853;BME280;56050;55.558;-4.644;2023-09-08T06:18:02;101707.00;;;19.72;67.40
64853;BME280;56050;55.558;-4.644;2023-09-08T06:20:27;101709.75;;;19.72;67.65
64853;BME280;56050;55.558;-4.644;2023-09-08T06:22:53;101714.03;;;19.73;67.54
64853;BME280;56050;55.558;-4.644;2023-09-08T06:25:18;101712.91;;;19.70;67.38
64853;BME280;56050;55.558;-4.644;2023-09-08T06:27:44;101708.28;;;19.67;67.70
64853;BME280;56050;55.558;-4.644;2023-09-08T06:30:10;101704.53;;;19.61;67.57
64853;BME280;56050;55.558;-4.644;2023-09-08T06:32:35;101703.00;;;19.60;67.85
64853;BME280;56050;55.558;-4.644;2023-09-08T06:35:01;101709.13;;;19.64;67.82
64853;BME280;56050;55.558;-4.644;2023-09-08T06:37:26;101702.31;;;19.72;67.81
64853;BME280;56050;55.558;-4.644;2023-09-08T06:39:54;101699.84;;;19.78;67.62
64853;BME280;56050;55.558;-4.644;2023-09-08T06:42:19;101703.22;;;19.85;67.58
64853;BME280;56050;55.558;-4.644;2023-09-08T06:44:45;101697.66;;;19.89;67.63
64853;BME280;56050;55.558;-4.644;2023-09-08T06:47:10;101706.97;;;19.91;67.75
64853;BME280;56050;55.558;-4.644;2023-09-08T06:49:36;101694.41;;;19.94;67.64
64853;BME280;56050;55.558;-4.644;2023-09-08T06:52:01;101703.56;;;20.04;67.88
64853;BME280;56050;55.558;-4.644;2023-09-08T06:54:27;101702.44;;;20.17;67.89
64853;BME280;56050;55.558;-4.644;2023-09-08T06:56:52;101707.53;;;20.35;67.76
64853;BME280;56050;55.558;-4.644;2023-09-08T06:59:18;101706.41;;;20.48;67.62
64853;BME280;56050;55.558;-4.644;2023-09-08T07:01:43;101705.78;;;20.57;67.45
64853;BME280;56050;55.558;-4.644;2023-09-08T07:04:09;101709.75;;;20.69;67.32
64853;BME280;56050;55.558;-4.644;2023-09-08T07:06:35;101706.75;;;20.79;67.59
64853;BME280;56050;55.558;-4.644;2023-09-08T07:09:02;101696.28;;;20.90;67.33
64853;BME280;56050;55.558;-4.644;2023-09-08T07:11:27;101702.25;;;21.01;67.21
64853;BME280;56050;55.558;-4.644;2023-09-08T07:13:54;101706.00;;;21.07;66.90
64853;BME280;56050;55.558;-4.644;2023-09-08T07:16:19;101704.72;;;21.12;66.81
64853;BME280;56050;55.558;-4.644;2023-09-08T07:18:45;101703.72;;;21.19;66.83
64853;BME280;56050;55.558;-4.644;2023-09-08T07:21:10;101704.63;;;21.28;66.86
64853;BME280;56050;55.558;-4.644;2023-09-08T07:23:35;101702.75;;;21.38;66.70
64853;BME280;56050;55.558;-4.644;2023-09-08T07:26:02;101698.19;;;21.47;66.54
64853;BME280;56050;55.558;-4.644;2023-09-08T07:28:27;101699.59;;;21.52;66.27
64853;BME280;56050;55.558;-4.644;2023-09-08T07:30:53;101705.44;;;21.54;66.28
64853;BME280;56050;55.558;-4.644;2023-09-08T07:33:18;101697.97;;;21.54;66.27
64853;BME280;56050;55.558;-4.644;2023-09-08T07:35:44;101696.31;;;21.57;66.35
64853;BME280;56050;55.558;-4.644;2023-09-08T07:38:10;101694.25;;;21.61;66.21
64853;BME280;56050;55.558;-4.644;2023-09-08T07:40:35;101696.22;;;21.60;66.10
64853;BME280;56050;55.558;-4.644;2023-09-08T07:43:01;101696.13;;;21.64;66.27
64853;BME280;56050;55.558;-4.644;2023-09-08T07:45:27;101696.03;;;21.67;66.36
64853;BME280;56050;55.558;-4.644;2023-09-08T07:47:53;101696.22;;;21.73;66.26
64853;BME280;56050;55.558;-4.644;2023-09-08T07:52:46;101685.91;;;21.77;65.94
64853;BME280;56050;55.558;-4.644;2023-09-08T07:55:12;101696.09;;;21.77;66.02
64853;BME280;56050;55.558;-4.644;2023-09-08T07:57:37;101697.19;;;21.79;66.19
64853;BME280;56050;55.558;-4.644;2023-09-08T08:00:03;101689.31;;;21.81;66.07
64853;BME280;56050;55.558;-4.644;2023-09-08T08:02:29;101693.56;;;21.82;66.04
64853;BME280;56050;55.558;-4.644;2023-09-08T08:04:55;101694.34;;;21.83;65.96
64853;BME280;56050;55.558;-4.644;2023-09-08T08:07:21;101704.91;;;21.84;66.03
64853;BME280;56050;55.558;-4.644;2023-09-08T08:09:46;101707.75;;;21.93;66.03
64853;BME280;56050;55.558;-4.644;2023-09-08T08:12:11;101709.06;;;22.01;65.79
64853;BME280;56050;55.558;-4.644;2023-09-08T08:14:37;101707.88;;;22.02;65.68
64853;BME280;56050;55.558;-4.644;2023-09-08T08:17:02;101703.47;;;22.05;65.70
64853;BME280;56050;55.558;-4.644;2023-09-08T08:19:28;101707.31;;;22.07;65.60
64853;BME280;56050;55.558;-4.644;2023-09-08T08:21:53;101709.63;;;22.09;65.68
64853;BME280;56050;55.558;-4.644;2023-09-08T08:24:19;101709.19;;;22.10;65.69
64853;BME280;56050;55.558;-4.644;2023-09-08T08:26:44;101715.53;;;22.07;65.76
64853;BME280;56050;55.558;-4.644;2023-09-08T08:29:10;101713.69;;;22.04;65.84
64853;BME280;56050;55.558;-4.644;2023-09-08T08:31:35;101705.91;;;22.03;65.73
64853;BME280;56050;55.558;-4.644;2023-09-08T08:34:01;101705.91;;;22.03;65.99
64853;BME280;56050;55.558;-4.644;2023-09-08T08:36:26;101724.88;;;22.10;65.85
64853;BME280;56050;55.558;-4.644;2023-09-08T08:38:52;101722.69;;;22.17;65.96
64853;BME280;56050;55.558;-4.644;2023-09-08T08:41:17;101719.59;;;22.28;65.71
64853;BME280;56050;55.558;-4.644;2023-09-08T08:43:43;101719.81;;;22.34;65.61
64853;BME280;56050;55.558;-4.644;2023-09-08T08:46:09;101723.63;;;22.36;65.47
64853;BME280;56050;55.558;-4.644;2023-09-08T08:48:37;101727.38;;;22.42;65.41
64853;BME280;56050;55.558;-4.644;2023-09-08T08:51:03;101726.34;;;22.49;65.37
64853;BME280;56050;55.558;-4.644;2023-09-08T08:53:31;101719.38;;;22.57;65.20
64853;BME280;56050;55.558;-4.644;2023-09-08T08:55:58;101723.47;;;22.65;65.08
64853;BME280;56050;55.558;-4.644;2023-09-08T08:58:25;101718.16;;;22.70;65.20
64853;BME280;56050;55.558;-4.644;2023-09-08T09:00:53;101711.78;;;22.73;64.90
64853;BME280;56050;55.558;-4.644;2023-09-08T09:03:25;101705.84;;;22.75;64.92
64853;BME280;56050;55.558;-4.644;2023-09-08T09:05:51;101701.75;;;22.79;64.77
64853;BME280;56050;55.558;-4.644;2023-09-08T09:08:17;101695.38;;;22.83;64.79
64853;BME280;56050;55.558;-4.644;2023-09-08T09:10:43;101695.56;;;22.88;64.68
64853;BME280;56050;55.558;-4.644;2023-09-08T09:13:09;101691.47;;;22.93;64.58
64853;BME280;56050;55.558;-4.644;2023-09-08T09:15:34;101690.72;;;22.92;64.48
64853;BME280;56050;55.558;-4.644;2023-09-08T09:18:06;101695.44;;;22.92;64.56
64853;BME280;56050;55.558;-4.644;2023-09-08T09:20:32;101699.59;;;22.96;64.62
64853;BME280;56050;55.558;-4.644;2023-09-08T09:22:58;101693.81;;;23.03;64.59
64853;BME280;56050;55.558;-4.644;2023-09-08T09:25:25;101693.69;;;23.07;64.46
64853;BME280;56050;55.558;-4.644;2023-09-08T09:27:52;101694.34;;;23.11;64.52
64853;BME280;56050;55.558;-4.644;2023-09-08T09:30:18;101694.84;;;23.18;64.44
64853;BME280;56050;55.558;-4.644;2023-09-08T09:32:44;101703.78;;;23.31;64.32
64853;BME280;56050;55.558;-4.644;2023-09-08T09:35:09;101701.44;;;23.43;64.19
64853;BME280;56050;55.558;-4.644;2023-09-08T09:37:35;101706.22;;;23.51;64.12
64853;BME280;56050;55.558;-4.644;2023-09-08T09:40:01;101700.28;;;23.62;63.85
64853;BME280;56050;55.558;-4.644;2023-09-08T09:42:28;101700.63;;;23.73;63.89
64853;BME280;56050;55.558;-4.644;2023-09-08T09:44:54;101701.88;;;23.81;63.75
64853;BME280;56050;55.558;-4.644;2023-09-08T09:47:20;101700.84;;;23.87;63.69
64853;BME280;56050;55.558;-4.644;2023-09-08T09:49:46;101701.31;;;23.95;63.63
64853;BME280;56050;55.558;-4.644;2023-09-08T09:52:13;101699.50;;;24.01;63.45
64853;BME280;56050;55.558;-4.644;2023-09-08T09:54:42;101697.41;;;24.05;63.30
64853;BME280;56050;55.558;-4.644;2023-09-08T09:57:13;101692.53;;;24.09;63.37
64853;BME280;56050;55.558;-4.644;2023-09-08T09:59:42;101684.00;;;24.16;63.23
64853;BME280;56050;55.558;-4.644;2023-09-08T10:02:14;101680.78;;;24.27;63.35
64853;BME280;56050;55.558;-4.644;2023-09-08T10:04:40;101684.28;;;24.36;63.06
64853;BME280;56050;55.558;-4.644;2023-09-08T10:07:06;101693.34;;;24.46;62.92
64853;BME280;56050;55.558;-4.644;2023-09-08T10:09:32;101689.34;;;24.47;62.84
64853;BME280;56050;55.558;-4.644;2023-09-08T10:12:02;101683.09;;;24.46;62.81
64853;BME280;56050;55.558;-4.644;2023-09-08T10:14:28;101684.00;;;24.52;62.80
64853;BME280;56050;55.558;-4.644;2023-09-08T10:16:56;101677.28;;;24.53;62.70
64853;BME280;56050;55.558;-4.644;2023-09-08T10:19:24;101685.25;;;24.51;62.74
64853;BME280;56050;55.558;-4.644;2023-09-08T10:21:51;101674.97;;;24.43;62.72
64853;BME280;56050;55.558;-4.644;2023-09-08T10:24:25;101680.16;;;24.32;62.88
64853;BME280;56050;55.558;-4.644;2023-09-08T10:27:04;101679.38;;;24.22;63.17
64853;BME280;56050;55.558;-4.644;2023-09-08T10:29:31;101678.63;;;24.13;63.20
64853;BME280;56050;55.558;-4.644;2023-09-08T10:31:58;101672.63;;;24.05;63.29
64853;BME280;56050;55.558;-4.644;2023-09-08T10:34:24;101670.13;;;23.98;63.41
64853;BME280;56050;55.558;-4.644;2023-09-08T10:36:51;101677.03;;;23.93;63.38
64853;BME280;56050;55.558;-4.644;2023-09-08T10:39:33;101671.03;;;23.86;63.69
64853;BME280;56050;55.558;-4.644;2023-09-08T10:44:42;101666.44;;;23.83;63.70
64853;BME280;56050;55.558;-4.644;2023-09-08T10:47:07;101658.50;;;23.85;63.89
64853;BME280;56050;55.558;-4.644;2023-09-08T10:49:36;101664.28;;;23.87;63.95
64853;BME280;56050;55.558;-4.644;2023-09-08T10:52:11;101658.50;;;23.85;63.96
64853;BME280;56050;55.558;-4.644;2023-09-08T10:54:44;101651.78;;;23.86;64.03
64853;BME280;56050;55.558;-4.644;2023-09-08T10:57:14;101668.59;;;23.88;64.09
64853;BME280;56050;55.558;-4.644;2023-09-08T11:02:39;101669.53;;;23.94;64.04
64853;BME280;56050;55.558;-4.644;2023-09-08T11:05:08;101661.28;;;23.94;63.97
64853;BME280;56050;55.558;-4.644;2023-09-08T11:07:38;101651.00;;;23.94;64.04
64853;BME280;56050;55.558;-4.644;2023-09-08T11:10:05;101654.09;;;23.96;64.04
64853;BME280;56050;55.558;-4.644;2023-09-08T11:12:31;101655.94;;;24.00;64.13
64853;BME280;56050;55.558;-4.644;2023-09-08T11:14:57;101662.19;;;24.00;64.09
64853;BME280;56050;55.558;-4.644;2023-09-08T11:17:26;101669.69;;;24.00;64.12
64853;BME280;56050;55.558;-4.644;2023-09-08T11:19:52;101679.31;;;23.95;64.12
64853;BME280;56050;55.558;-4.644;2023-09-08T11:22:17;101671.22;;;23.91;64.29
64853;BME280;56050;55.558;-4.644;2023-09-08T11:24:44;101678.69;;;23.91;64.28
64853;BME280;56050;55.558;-4.644;2023-09-08T11:27:12;101669.38;;;23.88;64.27
64853;BME280;56050;55.558;-4.644;2023-09-08T11:29:38;101673.47;;;23.84;64.41
64853;BME280;56050;55.558;-4.644;2023-09-08T11:32:07;101668.25;;;23.77;64.17
64853;BME280;56050;55.558;-4.644;2023-09-08T11:34:34;101665.78;;;23.70;64.48
64853;BME280;56050;55.558;-4.644;2023-09-08T11:37:00;101675.69;;;23.67;64.37
64853;BME280;56050;55.558;-4.644;2023-09-08T11:39:25;101676.59;;;23.64;64.45
64853;BME280;56050;55.558;-4.644;2023-09-08T11:41:52;101668.50;;;23.61;64.42
64853;BME280;56050;55.558;-4.644;2023-09-08T11:44:18;101667.88;;;23.57;64.47
64853;BME280;56050;55.558;-4.644;2023-09-08T11:46:44;101667.09;;;23.56;64.56
64853;BME280;56050;55.558;-4.644;2023-09-08T11:49:10;101658.72;;;23.60;64.53
64853;BME280;56050;55.558;-4.644;2023-09-08T11:51:36;101658.41;;;23.67;64.62
64853;BME280;56050;55.558;-4.644;2023-09-08T11:54:03;101664.56;;;23.71;64.36
64853;BME280;56050;55.558;-4.644;2023-09-08T11:56:28;101656.16;;;23.74;64.35
64853;BME280;56050;55.558;-4.644;2023-09-08T11:58:54;101660.00;;;23.77;64.36
64853;BME280;56050;55.558;-4.644;2023-09-08T12:01:20;101650.84;;;23.80;64.35
64853;BME280;56050;55.558;-4.644;2023-09-08T12:03:55;101655.56;;;23.79;64.32
64853;BME280;56050;55.558;-4.644;2023-09-08T12:06:25;101649.16;;;23.82;64.21
64853;BME280;56050;55.558;-4.644;2023-09-08T12:08:51;101644.72;;;23.85;64.19
64853;BME280;56050;55.558;-4.644;2023-09-08T12:11:16;101644.44;;;23.83;64.13
64853;BME280;56050;55.558;-4.644;2023-09-08T12:13:41;101645.94;;;23.84;64.12
64853;BME280;56050;55.558;-4.644;2023-09-08T12:16:20;101642.28;;;23.87;64.19
64853;BME280;56050;55.558;-4.644;2023-09-08T12:18:48;101638.91;;;23.92;64.01
64853;BME280;56050;55.558;-4.644;2023-09-08T12:21:15;101642.31;;;23.96;63.99
64853;BME280;56050;55.558;-4.644;2023-09-08T12:23:48;101639.56;;;23.96;63.96
64853;BME280;56050;55.558;-4.644;2023-09-08T12:26:17;101643.84;;;23.97;63.68
64853;BME280;56050;55.558;-4.644;2023-09-08T12:28:43;101640.75;;;23.95;63.80
64853;BME280;56050;55.558;-4.644;2023-09-08T12:31:09;101636.03;;;23.95;63.78
64853;BME280;56050;55.558;-4.644;2023-09-08T12:33:35;101637.25;;;23.94;63.54
64853;BME280;56050;55.558;-4.644;2023-09-08T12:36:13;101632.69;;;23.91;63.66
64853;BME280;56050;55.558;-4.644;2023-09-08T12:38:38;101624.72;;;23.93;63.54
64853;BME280;56050;55.558;-4.644;2023-09-08T12:41:04;101619.66;;;23.92;63.66
64853;BME280;56050;55.558;-4.644;2023-09-08T12:43:29;101618.44;;;23.93;63.65